Chattanooga (CHA/KCHA)

Map

Destinations

Information

Location
Chattanooga, TN
Local Time
15:44 / 3:44 pm
GMT Time
19:44 / 7:44 pm
Gates
2
No FAA reported delays
METAR KCHA 281853Z 19010KT 10SM SCT027 BKN042 BKN055 27/19 A2998 RMK AO2 SLP148 T02720189
TAF KCHA 281729Z 2818/2918 18010G18KT P6SM BKN035 FM290100 16004KT P6SM SCT035 FM291000 VRB03KT 5SM BR SCT020 FM291400 17011KT P6SM SCT035